Time;durP1;ratioP1;P1;durP2;ratioP2;P2;SDS_P1;SDS_P2;PMS_P1;PMS_P2;Temp;Humidity;BMP_temperature;BMP_pressure;BME280_temperature;BME280_humidity;BME280_pressure;Samples;Min_cycle;Max_cycle;Signal;HPM_P1;HPM_P2
2020/12/16 00:00:46;;;;;;;2.67;1.92;;;21.10;46.20;;;;;;6247286;28;20522;-68
2020/12/16 00:03:47;;;;;;;2.40;1.88;;;21.10;46.20;;;;;;6247587;28;20423;-67
2020/12/16 00:06:47;;;;;;;2.38;1.75;;;21.10;46.10;;;;;;6246966;28;20144;-68
2020/12/16 00:09:48;;;;;;;2.72;1.83;;;21.10;46.10;;;;;;6246811;28;20092;-68
2020/12/16 00:12:48;;;;;;;2.33;1.88;;;21.10;46.10;;;;;;6246517;28;20031;-68
2020/12/16 00:15:49;;;;;;;2.63;1.95;;;21.00;46.00;;;;;;6247225;28;20480;-67
2020/12/16 00:18:49;;;;;;;2.40;1.90;;;21.10;46.20;;;;;;6246671;28;20032;-67
2020/12/16 00:21:50;;;;;;;2.47;1.65;;;21.10;45.80;;;;;;6246762;28;20473;-67
2020/12/16 00:24:50;;;;;;;2.08;1.70;;;21.10;46.00;;;;;;6246973;28;20120;-67
2020/12/16 00:27:51;;;;;;;2.33;1.63;;;21.10;46.00;;;;;;6246684;28;20478;-68
2020/12/16 00:30:51;;;;;;;2.10;1.73;;;21.00;46.10;;;;;;6262579;28;20028;-68
2020/12/16 00:33:52;;;;;;;3.13;2.13;;;21.10;46.10;;;;;;6271349;28;20341;-68
2020/12/16 00:36:52;;;;;;;3.05;1.92;;;21.10;46.10;;;;;;6272006;28;20025;-67
2020/12/16 00:39:53;;;;;;;3.35;2.10;;;21.10;46.20;;;;;;6269608;28;20408;-68
2020/12/16 00:42:53;;;;;;;2.35;1.88;;;21.00;46.10;;;;;;6271036;28;20111;-68
2020/12/16 00:45:54;;;;;;;2.10;1.52;;;21.00;46.00;;;;;;6271670;28;20056;-67
2020/12/16 00:48:54;;;;;;;4.28;2.05;;;21.00;46.30;;;;;;6270850;28;20033;-67
2020/12/16 00:51:55;;;;;;;3.05;2.22;;;21.00;46.20;;;;;;6269299;28;20060;-68
2020/12/16 00:54:56;;;;;;;2.35;1.60;;;21.00;46.20;;;;;;6269614;28;20352;-67
2020/12/16 00:57:58;;;;;;;2.72;1.75;;;21.00;46.20;;;;;;6271088;28;20563;-67
2020/12/16 01:00:58;;;;;;;2.25;1.67;;;21.00;46.20;;;;;;6270029;28;20021;-67
2020/12/16 01:03:59;;;;;;;2.08;1.67;;;21.00;46.20;;;;;;6270666;28;20029;-67
2020/12/16 01:06:59;;;;;;;2.22;1.60;;;21.00;46.10;;;;;;6270059;28;20033;-68
2020/12/16 01:09:59;;;;;;;3.20;1.90;;;21.00;46.30;;;;;;6269997;28;20048;-67
2020/12/16 01:13:00;;;;;;;1.98;1.45;;;21.00;46.30;;;;;;6270637;28;20079;-68
2020/12/16 01:16:00;;;;;;;2.50;1.65;;;21.00;46.10;;;;;;6269999;28;20025;-68
2020/12/16 01:19:03;;;;;;;2.60;1.88;;;21.00;46.10;;;;;;6270730;28;20041;-68
2020/12/16 01:22:04;;;;;;;2.60;1.73;;;21.00;46.00;;;;;;6269298;28;20036;-68
2020/12/16 01:25:05;;;;;;;3.22;1.98;;;21.00;46.10;;;;;;6270358;28;20017;-68
2020/12/16 01:28:06;;;;;;;2.58;1.60;;;21.00;46.30;;;;;;6269207;28;20029;-68
2020/12/16 01:31:06;;;;;;;2.30;1.65;;;21.00;46.40;;;;;;6268258;28;20052;-68
2020/12/16 01:34:07;;;;;;;2.50;1.60;;;21.00;46.30;;;;;;6268397;28;20027;-68
2020/12/16 01:37:08;;;;;;;1.73;1.50;;;21.00;46.20;;;;;;6269651;28;20052;-68
2020/12/16 01:40:09;;;;;;;2.30;1.50;;;21.00;46.30;;;;;;6269202;28;20055;-68
2020/12/16 01:43:10;;;;;;;1.95;1.52;;;21.00;46.20;;;;;;6269379;28;20102;-68
2020/12/16 01:46:11;;;;;;;1.90;1.52;;;21.00;46.30;;;;;;6269289;28;20024;-68
2020/12/16 01:49:11;;;;;;;2.17;1.65;;;21.00;46.30;;;;;;6267864;28;20033;-68
2020/12/16 01:52:18;;;;;;;1.83;1.30;;;21.00;46.30;;;;;;6269255;28;20013;-68
2020/12/16 01:55:19;;;;;;;2.00;1.50;;;21.00;46.60;;;;;;6269047;28;20025;-68
2020/12/16 01:58:23;;;;;;;2.08;1.58;;;21.00;46.40;;;;;;6269151;28;20124;-68
2020/12/16 02:01:24;;;;;;;1.98;1.33;;;21.00;46.30;;;;;;6269056;28;20033;-68
2020/12/16 02:04:28;;;;;;;2.85;1.75;;;20.90;46.20;;;;;;6268763;28;20384;-68
2020/12/16 02:07:31;;;;;;;2.10;1.40;;;20.90;46.40;;;;;;6269101;28;20043;-68
2020/12/16 02:10:32;;;;;;;1.95;1.35;;;20.90;46.40;;;;;;6267155;28;20499;-68
2020/12/16 02:13:32;;;;;;;1.83;1.58;;;20.90;46.30;;;;;;6268422;28;20040;-68
2020/12/16 02:16:36;;;;;;;1.63;1.30;;;20.90;46.20;;;;;;6268828;28;20440;-68
2020/12/16 02:19:40;;;;;;;2.20;1.52;;;20.90;46.10;;;;;;6266994;28;20495;-68
2020/12/16 02:22:47;;;;;;;2.00;1.50;;;20.90;46.20;;;;;;6268808;28;20017;-68
2020/12/16 02:25:48;;;;;;;2.13;1.40;;;20.90;46.30;;;;;;6268560;28;20120;-68
2020/12/16 02:28:51;;;;;;;2.20;1.40;;;20.90;46.20;;;;;;6268656;28;20036;-68
2020/12/16 02:31:53;;;;;;;1.45;1.35;;;20.90;46.20;;;;;;6268369;28;20112;-68
2020/12/16 02:34:55;;;;;;;1.75;1.48;;;20.90;46.40;;;;;;6267753;28;20203;-68
2020/12/16 02:37:55;;;;;;;2.45;1.70;;;20.90;46.40;;;;;;6256798;28;20036;-68
2020/12/16 02:40:56;;;;;;;1.40;1.23;;;20.90;46.50;;;;;;6243008;28;20026;-68
2020/12/16 02:43:56;;;;;;;3.92;1.30;;;20.90;46.30;;;;;;6243932;28;20476;-68
2020/12/16 02:46:58;;;;;;;1.88;1.42;;;20.90;46.30;;;;;;6242715;28;20702;-68
2020/12/16 02:49:59;;;;;;;1.25;1.05;;;20.90;46.40;;;;;;6242868;28;20033;-68
2020/12/16 02:52:59;;;;;;;1.77;1.45;;;20.90;46.40;;;;;;6243274;28;20546;-68
2020/12/16 02:56:00;;;;;;;1.65;1.30;;;20.90;46.30;;;;;;6243695;28;20014;-68
2020/12/16 02:59:00;;;;;;;1.88;1.48;;;20.90;46.40;;;;;;6243418;28;20029;-68
2020/12/16 03:02:01;;;;;;;1.90;1.42;;;20.90;46.30;;;;;;6242346;28;20065;-68
2020/12/16 03:05:01;;;;;;;2.08;1.50;;;20.90;46.50;;;;;;6243221;28;20025;-68
2020/12/16 03:08:06;;;;;;;1.70;1.52;;;20.90;46.40;;;;;;6242369;28;20566;-68
2020/12/16 03:11:06;;;;;;;1.92;1.35;;;20.90;46.30;;;;;;6243275;28;20022;-68
2020/12/16 03:14:07;;;;;;;1.92;1.40;;;20.90;46.20;;;;;;6242836;28;20041;-68
2020/12/16 03:17:07;;;;;;;1.85;1.45;;;20.90;46.10;;;;;;6241683;28;20112;-68
2020/12/16 03:20:08;;;;;;;1.40;1.20;;;20.90;46.10;;;;;;6242744;28;20542;-68
2020/12/16 03:23:08;;;;;;;1.95;1.55;;;20.90;46.20;;;;;;6242745;28;20484;-68
2020/12/16 03:26:09;;;;;;;1.95;1.48;;;20.90;46.30;;;;;;6241808;28;20507;-68
2020/12/16 03:29:09;;;;;;;1.83;1.50;;;20.90;46.40;;;;;;6241112;28;20026;-68
2020/12/16 03:32:10;;;;;;;1.50;1.13;;;20.90;46.40;;;;;;6241015;28;20395;-68
2020/12/16 03:35:10;;;;;;;2.38;1.40;;;20.90;46.30;;;;;;6245246;28;20432;-68
2020/12/16 03:38:11;;;;;;;2.03;1.60;;;20.80;46.30;;;;;;6267577;28;20029;-68
2020/12/16 03:41:13;;;;;;;2.22;1.50;;;20.80;46.40;;;;;;6266999;28;20122;-68
2020/12/16 03:44:14;;;;;;;2.53;1.60;;;20.90;46.30;;;;;;6267164;28;20036;-68
2020/12/16 03:47:15;;;;;;;1.67;1.33;;;20.90;46.40;;;;;;6266974;28;20579;-68
2020/12/16 03:50:16;;;;;;;1.98;1.40;;;20.80;46.40;;;;;;6251008;28;20064;-68
2020/12/16 03:53:16;;;;;;;1.75;1.40;;;20.80;46.50;;;;;;6256137;28;20025;-68
2020/12/16 03:56:17;;;;;;;1.63;1.15;;;20.80;46.40;;;;;;6266087;28;20154;-68
2020/12/16 03:59:17;;;;;;;1.67;1.30;;;20.80;46.30;;;;;;6266991;28;20071;-68
2020/12/16 04:02:18;;;;;;;1.70;1.38;;;20.80;46.40;;;;;;6267072;28;20025;-68
2020/12/16 04:05:18;;;;;;;1.58;1.00;;;20.80;46.40;;;;;;6267080;28;20459;-68
2020/12/16 04:08:18;;;;;;;1.73;1.10;;;20.80;46.40;;;;;;6266697;28;20749;-68
2020/12/16 04:11:19;;;;;;;1.83;1.25;;;20.80;46.30;;;;;;6266520;28;20450;-68
2020/12/16 04:14:20;;;;;;;1.42;1.00;;;20.80;46.30;;;;;;6268595;28;20021;-68
2020/12/16 04:17:21;;;;;;;1.88;1.42;;;20.80;46.20;;;;;;6271757;28;20047;-68
2020/12/16 04:20:21;;;;;;;1.75;1.30;;;20.80;46.20;;;;;;6271086;28;20029;-68
2020/12/16 04:23:22;;;;;;;1.17;1.08;;;20.80;46.20;;;;;;6271595;28;20445;-68
2020/12/16 04:26:28;;;;;;;1.13;1.02;;;20.80;46.30;;;;;;6271079;28;20087;-68
2020/12/16 04:29:28;;;;;;;1.20;1.00;;;20.80;46.40;;;;;;6271572;28;20021;-68
2020/12/16 04:32:28;;;;;;;2.10;1.38;;;20.80;46.40;;;;;;6270900;28;20036;-68
2020/12/16 04:35:29;;;;;;;1.58;1.27;;;20.80;46.40;;;;;;6269648;28;20476;-68
2020/12/16 04:38:30;;;;;;;1.67;1.15;;;20.80;46.40;;;;;;6269726;28;20083;-68
2020/12/16 04:41:30;;;;;;;1.77;1.23;;;20.80;46.40;;;;;;6285742;28;20035;-68
2020/12/16 04:44:31;;;;;;;1.80;1.50;;;20.80;47.20;;;;;;6271300;28;20029;-68
2020/12/16 04:47:31;;;;;;;1.50;1.30;;;20.80;46.40;;;;;;6270358;28;20479;-68
2020/12/16 04:50:32;;;;;;;1.25;1.08;;;20.80;46.60;;;;;;6270347;28;20021;-68
2020/12/16 04:53:35;;;;;;;2.03;1.40;;;20.80;46.30;;;;;;6271249;28;20021;-68
2020/12/16 04:56:36;;;;;;;1.33;1.13;;;20.80;46.50;;;;;;6270662;28;20462;-68
2020/12/16 04:59:37;;;;;;;1.35;1.13;;;20.80;46.40;;;;;;6271299;28;20025;-68
2020/12/16 05:02:37;;;;;;;1.67;1.00;;;20.80;46.60;;;;;;6270300;28;20025;-68
2020/12/16 05:05:38;;;;;;;1.52;1.10;;;20.80;46.60;;;;;;6269907;28;20025;-68
2020/12/16 05:08:38;;;;;;;1.50;1.20;;;20.80;46.40;;;;;;6270399;28;20094;-68
2020/12/16 05:11:43;;;;;;;1.27;1.02;;;20.80;46.40;;;;;;6270045;28;20396;-68
2020/12/16 05:14:44;;;;;;;1.38;1.13;;;20.80;46.30;;;;;;6270594;28;20025;-68
2020/12/16 05:17:44;;;;;;;1.15;1.02;;;20.80;46.30;;;;;;6268895;28;20041;-68
2020/12/16 05:20:50;;;;;;;1.25;1.00;;;20.80;46.30;;;;;;6270160;28;20329;-68
2020/12/16 05:23:51;;;;;;;1.45;1.10;;;20.80;46.20;;;;;;6270106;28;20025;-68
2020/12/16 05:26:52;;;;;;;2.28;1.20;;;20.80;46.30;;;;;;6269739;28;20033;-68
2020/12/16 05:30:02;;;;;;;1.20;1.10;;;20.80;46.30;;;;;;6269517;28;20472;-68
2020/12/16 05:33:03;;;;;;;1.40;1.10;;;20.80;46.30;;;;;;6270578;28;20074;-68
2020/12/16 05:36:04;;;;;;;1.92;1.33;;;20.80;46.20;;;;;;6269765;28;20025;-68
2020/12/16 05:39:04;;;;;;;1.60;1.30;;;20.80;46.30;;;;;;6269420;28;20086;-68
2020/12/16 05:42:06;;;;;;;1.33;1.17;;;20.80;46.30;;;;;;6269104;28;20021;-68
2020/12/16 05:45:16;;;;;;;1.27;1.00;;;20.80;46.20;;;;;;6269297;28;20025;-68
2020/12/16 05:48:17;;;;;;;1.20;1.05;;;20.80;46.30;;;;;;6268980;28;20064;-68
2020/12/16 05:51:17;;;;;;;1.52;1.00;;;20.80;46.20;;;;;;6269307;28;20476;-68
2020/12/16 05:54:18;;;;;;;1.90;1.20;;;20.80;46.20;;;;;;6269055;28;20021;-68
2020/12/16 05:57:21;;;;;;;1.23;1.13;;;20.80;46.20;;;;;;6268087;28;20116;-68
2020/12/16 06:00:22;;;;;;;1.58;1.25;;;20.80;46.30;;;;;;6268166;28;20032;-68
2020/12/16 06:03:28;;;;;;;1.45;1.17;;;20.80;46.20;;;;;;6268966;28;20025;-68
2020/12/16 06:06:28;;;;;;;1.30;1.17;;;20.80;46.20;;;;;;6269229;28;20025;-68
2020/12/16 06:09:32;;;;;;;1.83;1.00;;;20.80;46.20;;;;;;6268587;28;20029;-68
2020/12/16 06:12:40;;;;;;;1.40;1.20;;;20.80;46.30;;;;;;6269303;28;20032;-67
2020/12/16 06:15:55;;;;;;;2.58;1.40;;;20.90;46.30;;;;;;6268396;28;20028;-68
2020/12/16 06:19:01;;;;;;;2.05;1.30;;;21.00;46.00;;;;;;6269372;28;20044;-68
2020/12/16 06:22:08;;;;;;;1.35;1.25;;;21.00;46.80;;;;;;6268031;28;20037;-68
2020/12/16 06:25:11;;;;;;;2.08;1.50;;;21.10;46.10;;;;;;6268584;28;20021;-68
2020/12/16 06:28:13;;;;;;;1.50;1.40;;;21.10;45.90;;;;;;6268764;28;20033;-68
2020/12/16 06:31:27;;;;;;;1.95;1.40;;;21.10;46.00;;;;;;6266903;28;20104;-68
2020/12/16 06:34:29;;;;;;;1.45;1.17;;;21.20;46.30;;;;;;6268328;28;20017;-68
2020/12/16 06:37:29;;;;;;;1.23;1.10;;;21.20;46.00;;;;;;6268079;28;20029;-68
2020/12/16 06:40:49;;;;;;;1.40;1.30;;;21.20;46.00;;;;;;6267855;28;20064;-68
2020/12/16 06:43:55;;;;;;;1.35;1.00;;;21.30;46.00;;;;;;6268246;28;20026;-68
2020/12/16 06:46:57;;;;;;;1.92;1.30;;;21.30;45.90;;;;;;6267678;28;20021;-68
2020/12/16 06:50:15;;;;;;;1.50;1.10;;;21.30;46.10;;;;;;6268221;28;20033;-68
2020/12/16 06:53:21;;;;;;;1.40;1.30;;;21.30;46.00;;;;;;6266113;28;20337;-68
2020/12/16 06:56:21;;;;;;;10.38;3.45;;;21.30;46.00;;;;;;6246083;28;20028;-70
2020/12/16 06:59:51;;;;;;;18.35;7.65;;;21.20;46.50;;;;;;6246422;28;20444;-72
2020/12/16 07:02:51;;;;;;;16.02;10.05;;;21.10;46.00;;;;;;6252003;28;20030;-70
2020/12/16 07:05:52;;;;;;;13.77;9.55;;;21.10;45.30;;;;;;6243109;28;20034;-70
2020/12/16 07:09:19;;;;;;;16.27;11.38;;;21.10;44.90;;;;;;6257719;28;20029;-73
2020/12/16 07:12:29;;;;;;;16.20;10.93;;;21.10;44.30;;;;;;6252648;28;20020;-73
2020/12/16 07:15:53;;;;;;;27.52;13.60;;;21.10;44.10;;;;;;6251628;28;20567;-73
2020/12/16 07:18:55;;;;;;;21.13;12.65;;;21.10;43.60;;;;;;6265792;28;20228;-70
2020/12/16 07:21:55;;;;;;;17.70;9.52;;;21.00;44.30;;;;;;6269901;28;20025;-70
2020/12/16 07:24:56;;;;;;;14.85;7.72;;;21.20;44.70;;;;;;6258295;28;20034;-73
2020/12/16 07:27:57;;;;;;;15.90;8.32;;;21.20;44.30;;;;;;6249953;28;20025;-69
2020/12/16 07:31:03;;;;;;;14.13;7.93;;;21.30;44.40;;;;;;6243562;28;20083;-68
2020/12/16 07:34:03;;;;;;;11.50;5.72;;;21.40;43.90;;;;;;6243271;28;20022;-70
2020/12/16 07:37:04;;;;;;;8.60;5.57;;;21.50;44.40;;;;;;6245085;28;20036;-70
2020/12/16 07:40:10;;;;;;;12.02;4.93;;;21.50;44.20;;;;;;6248779;28;20105;-71
2020/12/16 07:43:12;;;;;;;6.95;4.30;;;21.60;44.30;;;;;;6258311;28;20104;-72
2020/12/16 07:46:13;;;;;;;8.43;3.83;;;21.60;44.40;;;;;;6271859;28;20029;-69
2020/12/16 07:49:16;;;;;;;9.23;3.97;;;21.70;44.30;;;;;;6272561;28;20083;-70
2020/12/16 07:52:23;;;;;;;8.63;3.65;;;21.70;44.40;;;;;;6254089;28;20018;-69
2020/12/16 07:55:24;;;;;;;7.60;4.70;;;21.70;45.00;;;;;;6225903;28;20026;-70
2020/12/16 07:58:24;;;;;;;10.77;5.25;;;21.60;45.00;;;;;;6250800;28;20072;-70
2020/12/16 08:01:28;;;;;;;10.35;7.65;;;21.50;45.00;;;;;;6252821;28;20144;-68
2020/12/16 08:04:28;;;;;;;13.40;8.27;;;21.50;44.80;;;;;;6250785;28;20037;-67
2020/12/16 08:07:29;;;;;;;9.05;5.97;;;21.60;44.20;;;;;;6250423;28;20052;-70
2020/12/16 08:10:30;;;;;;;16.65;6.05;;;21.70;44.80;;;;;;6250043;28;20499;-73
2020/12/16 08:13:30;;;;;;;11.30;4.20;;;21.80;45.30;;;;;;6257774;28;20053;-74
2020/12/16 08:16:32;;;;;;;10.00;4.03;;;22.00;45.20;;;;;;6249988;28;20021;-72
2020/12/16 08:19:32;;;;;;;12.05;4.20;;;22.00;45.00;;;;;;6265014;28;20166;-73
2020/12/16 08:22:35;;;;;;;9.55;3.40;;;22.10;45.30;;;;;;6274698;28;20061;-68
2020/12/16 08:25:36;;;;;;;13.90;3.47;;;22.10;44.90;;;;;;6249913;28;20026;-68
2020/12/16 08:28:37;;;;;;;7.20;3.20;;;22.10;45.10;;;;;;6248727;28;20540;-68
2020/12/16 08:31:39;;;;;;;35.25;3.67;;;22.10;45.30;;;;;;6249408;28;20029;-68
2020/12/16 08:34:43;;;;;;;10.80;2.63;;;22.10;45.30;;;;;;6249679;28;20029;-73
2020/12/16 08:37:48;;;;;;;19.73;3.15;;;22.90;45.10;;;;;;6249196;28;20022;-72
2020/12/16 08:40:48;;;;;;;11.18;2.70;;;23.70;42.40;;;;;;6272478;28;20018;-66
2020/12/16 08:43:49;;;;;;;1312.65;58.20;;;22.90;43.90;;;;;;6272223;28;20021;-66
2020/12/16 08:46:50;;;;;;;113.38;7.20;;;22.50;44.90;;;;;;6272254;28;20025;-66
2020/12/16 08:49:51;;;;;;;72.93;4.88;;;22.30;45.20;;;;;;6272873;28;20452;-67
2020/12/16 08:52:52;;;;;;;83.60;5.85;;;22.20;45.40;;;;;;6246270;28;20025;-64
2020/12/16 08:55:52;;;;;;;43.92;4.03;;;22.20;45.40;;;;;;6255197;28;20384;-67
2020/12/16 08:59:14;;;;;;;42.63;4.75;;;22.20;45.90;;;;;;6255004;28;20083;-65
2020/12/16 09:02:14;;;;;;;32.35;3.72;;;22.20;46.00;;;;;;6247426;28;20029;-64
2020/12/16 09:05:26;;;;;;;24.15;3.53;;;22.20;46.00;;;;;;6269588;28;20028;-64
2020/12/16 09:08:29;;;;;;;17.77;3.00;;;22.10;45.90;;;;;;6247114;28;20029;-65
2020/12/16 09:11:29;;;;;;;20.25;3.38;;;22.10;45.80;;;;;;6250803;28;20116;-66
2020/12/16 09:14:30;;;;;;;14.13;2.63;;;22.20;46.10;;;;;;6246159;28;20026;-65
2020/12/16 09:17:32;;;;;;;11.95;3.13;;;22.30;45.20;;;;;;6245932;28;20600;-66
2020/12/16 09:20:32;;;;;;;10.52;3.40;;;22.40;45.50;;;;;;6246159;28;20097;-66
2020/12/16 09:23:33;;;;;;;21.08;3.60;;;22.40;45.40;;;;;;6245522;28;20017;-66
2020/12/16 09:26:44;;;;;;;20.02;3.00;;;22.30;45.50;;;;;;6266593;28;20033;-64
2020/12/16 09:29:46;;;;;;;10.55;3.20;;;22.40;45.50;;;;;;6268393;28;20083;-63
2020/12/16 09:32:46;;;;;;;7.13;2.60;;;22.40;45.20;;;;;;6269971;28;20029;-66
2020/12/16 09:35:52;;;;;;;9.60;2.15;;;22.40;45.30;;;;;;6252826;28;20044;-66
2020/12/16 09:38:57;;;;;;;10.52;2.60;;;22.30;45.20;;;;;;6244508;28;20557;-66
2020/12/16 09:41:57;;;;;;;6.88;2.13;;;22.40;45.30;;;;;;6244578;28;20017;-65
2020/12/16 09:45:17;;;;;;;4.93;2.20;;;22.40;45.30;;;;;;6243910;28;20593;-65
2020/12/16 09:48:27;;;;;;;5.75;2.22;;;22.40;45.10;;;;;;6243852;28;20665;-66
2020/12/16 09:51:34;;;;;;;4.15;2.05;;;22.50;45.00;;;;;;6246920;28;20029;-63
2020/12/16 09:54:34;;;;;;;7.32;2.53;;;22.50;45.00;;;;;;6245905;28;20029;-64
2020/12/16 09:57:35;;;;;;;11.75;2.65;;;22.40;45.10;;;;;;6247124;28;20104;-65
2020/12/16 10:00:37;;;;;;;7.18;2.30;;;22.40;45.60;;;;;;6260335;28;20029;-68
2020/12/16 10:03:37;;;;;;;7.18;2.42;;;22.50;45.90;;;;;;6252019;28;20407;-65
2020/12/16 10:06:38;;;;;;;5.85;2.38;;;22.40;45.20;;;;;;6244985;28;20032;-65
2020/12/16 10:09:39;;;;;;;4.22;2.38;;;22.40;45.30;;;;;;6244783;28;20029;-65
2020/12/16 10:12:40;;;;;;;5.28;1.73;;;22.40;45.30;;;;;;6251545;28;20017;-64
2020/12/16 10:15:40;;;;;;;5.03;1.67;;;22.30;45.40;;;;;;6262569;28;20025;-66
2020/12/16 10:18:41;;;;;;;4.45;2.22;;;22.30;45.30;;;;;;6258752;28;20025;-67
2020/12/16 10:21:42;;;;;;;5.97;2.70;;;22.30;45.60;;;;;;6266417;28;20029;-64
2020/12/16 10:24:43;;;;;;;3.97;1.80;;;22.20;45.50;;;;;;6256345;28;20087;-64
2020/12/16 10:27:44;;;;;;;10.00;2.28;;;22.10;45.70;;;;;;6254983;28;20024;-64
2020/12/16 10:30:45;;;;;;;5.80;2.35;;;22.10;45.60;;;;;;6243016;28;20646;-66
2020/12/16 10:33:45;;;;;;;3.05;2.08;;;22.10;45.60;;;;;;6256487;28;20036;-65
2020/12/16 10:36:50;;;;;;;5.18;2.00;;;22.10;45.70;;;;;;6246996;28;20022;-64
2020/12/16 10:39:52;;;;;;;8.93;1.80;;;22.20;46.00;;;;;;6245917;28;20508;-66
2020/12/16 10:42:52;;;;;;;13.93;2.15;;;22.30;45.40;;;;;;6245618;28;20058;-62
2020/12/16 10:45:53;;;;;;;7.95;1.95;;;22.50;45.70;;;;;;6242801;28;20395;-61
2020/12/16 10:48:53;;;;;;;4.30;2.08;;;22.80;45.20;;;;;;6244742;28;20529;-62
2020/12/16 10:51:55;;;;;;;11.15;1.80;;;23.00;44.60;;;;;;6242948;28;20031;-62
2020/12/16 10:54:55;;;;;;;10.88;2.10;;;23.00;44.90;;;;;;6243064;28;20045;-63
2020/12/16 10:57:55;;;;;;;5.93;2.20;;;22.80;45.00;;;;;;6243156;28;20044;-65
2020/12/16 11:00:56;;;;;;;16.88;2.40;;;22.90;45.20;;;;;;6241628;28;20037;-62
2020/12/16 11:03:56;;;;;;;5.60;1.88;;;23.10;44.80;;;;;;6243234;28;20018;-62
2020/12/16 11:06:57;;;;;;;9.50;2.03;;;23.10;44.50;;;;;;6243412;28;20021;-62
2020/12/16 11:09:58;;;;;;;3.13;1.88;;;23.10;44.40;;;;;;6243407;28;20049;-62
2020/12/16 11:12:58;;;;;;;4.55;1.70;;;23.10;44.40;;;;;;6244868;28;20069;-63
2020/12/16 11:15:59;;;;;;;2.53;1.95;;;23.00;44.50;;;;;;6268133;28;20028;-62
2020/12/16 11:18:59;;;;;;;3.25;1.88;;;23.00;44.50;;;;;;6261928;28;20051;-62
2020/12/16 11:22:00;;;;;;;4.80;1.90;;;23.00;44.50;;;;;;6243554;28;20076;-60
2020/12/16 11:25:00;;;;;;;9.40;1.98;;;23.10;45.00;;;;;;6242838;28;20055;-71
2020/12/16 11:28:01;;;;;;;5.43;1.80;;;23.10;45.30;;;;;;6245675;28;20022;-63
2020/12/16 11:31:02;;;;;;;9.13;1.95;;;23.20;44.30;;;;;;6241425;28;20020;-61
2020/12/16 11:34:02;;;;;;;3.40;1.90;;;23.10;44.30;;;;;;6246770;28;20035;-62
2020/12/16 11:37:03;;;;;;;3.38;1.52;;;23.10;44.30;;;;;;6266090;28;20642;-63
2020/12/16 11:40:04;;;;;;;2.80;1.75;;;23.10;44.30;;;;;;6255486;28;20484;-62
2020/12/16 11:43:05;;;;;;;3.50;1.80;;;23.10;44.30;;;;;;6256151;28;20530;-63
2020/12/16 11:46:05;;;;;;;5.20;1.75;;;23.10;44.60;;;;;;6240530;28;20060;-63
2020/12/16 11:49:06;;;;;;;6.07;2.20;;;23.20;44.30;;;;;;6243124;28;20424;-63
2020/12/16 11:52:07;;;;;;;2.88;1.80;;;23.10;45.00;;;;;;6241093;28;20026;-65
2020/12/16 11:55:07;;;;;;;2.88;1.90;;;23.20;44.90;;;;;;6252627;28;20091;-62
2020/12/16 11:58:08;;;;;;;3.53;1.55;;;23.20;44.40;;;;;;6241578;28;20064;-63
2020/12/16 12:01:13;;;;;;;4.13;1.50;;;23.20;44.40;;;;;;6246108;28;20025;-63
2020/12/16 12:04:13;;;;;;;4.43;2.13;;;23.20;44.60;;;;;;6244797;28;20057;-64
2020/12/16 12:07:14;;;;;;;2.72;1.83;;;23.20;44.30;;;;;;6241557;28;20045;-63
2020/12/16 12:10:14;;;;;;;2.63;1.88;;;23.20;44.30;;;;;;6248222;28;20044;-63
2020/12/16 12:13:15;;;;;;;3.25;1.88;;;23.20;44.30;;;;;;6241073;28;20025;-63
2020/12/16 12:16:16;;;;;;;8.57;1.90;;;23.20;44.30;;;;;;6255409;28;20051;-63
2020/12/16 12:19:17;;;;;;;13.20;2.47;;;23.20;44.30;;;;;;6239466;28;20034;-64
2020/12/16 12:22:17;;;;;;;5.47;2.05;;;23.20;44.50;;;;;;6241815;28;20028;-63
2020/12/16 12:25:18;;;;;;;7.43;1.98;;;23.20;44.50;;;;;;6240361;28;20536;-64
2020/12/16 12:28:18;;;;;;;8.88;2.00;;;23.10;44.50;;;;;;6245069;28;20041;-65
2020/12/16 12:31:19;;;;;;;7.05;2.17;;;23.10;44.60;;;;;;6241852;28;20018;-64
2020/12/16 12:34:19;;;;;;;5.72;2.08;;;23.00;44.70;;;;;;6250109;28;20026;-64
2020/12/16 12:37:20;;;;;;;7.75;1.80;;;23.00;44.70;;;;;;6265769;28;20083;-62
2020/12/16 12:40:20;;;;;;;6.63;1.70;;;23.10;44.60;;;;;;6245380;28;20035;-63
2020/12/16 12:43:21;;;;;;;7.85;1.73;;;23.10;44.50;;;;;;6244874;28;20481;-64
2020/12/16 12:46:21;;;;;;;11.70;1.50;;;23.20;44.20;;;;;;6244935;28;20104;-65
2020/12/16 12:49:22;;;;;;;5.20;1.75;;;23.20;44.20;;;;;;6250670;28;20479;-64
2020/12/16 12:52:22;;;;;;;4.22;2.25;;;23.30;44.30;;;;;;6254515;28;20032;-62
2020/12/16 12:55:23;;;;;;;8.68;2.03;;;23.20;44.10;;;;;;6255124;28;20021;-63
2020/12/16 12:58:23;;;;;;;6.75;1.70;;;23.30;44.00;;;;;;6244709;28;20079;-63
2020/12/16 13:01:24;;;;;;;8.45;2.88;;;23.20;44.20;;;;;;6247838;28;20400;-61
2020/12/16 13:04:24;;;;;;;12.88;6.10;;;23.10;44.00;;;;;;6244406;28;20091;-65
2020/12/16 13:07:25;;;;;;;11.18;4.15;;;22.80;43.00;;;;;;6251786;28;20079;-62
2020/12/16 13:10:25;;;;;;;10.35;4.63;;;22.90;43.30;;;;;;6246668;28;20061;-63
2020/12/16 13:13:26;;;;;;;11.85;3.80;;;22.90;43.40;;;;;;6244750;28;20025;-65
2020/12/16 13:16:26;;;;;;;12.48;3.85;;;22.90;43.40;;;;;;6246884;28;20033;-64
2020/12/16 13:19:27;;;;;;;8.02;3.28;;;22.90;44.10;;;;;;6247836;28;20033;-64
2020/12/16 13:22:27;;;;;;;10.60;3.08;;;22.90;44.40;;;;;;6243435;28;20033;-63
2020/12/16 13:25:28;;;;;;;4.72;2.60;;;22.90;44.10;;;;;;6242950;28;20067;-64
2020/12/16 13:28:30;;;;;;;19.02;3.08;;;22.90;43.90;;;;;;6243468;28;20863;-63
2020/12/16 13:31:30;;;;;;;6.07;2.53;;;22.90;44.00;;;;;;6259987;28;20037;-62
2020/12/16 13:34:30;;;;;;;6.13;2.50;;;22.90;44.30;;;;;;6242048;28;20030;-64
2020/12/16 13:37:31;;;;;;;3.30;2.25;;;23.00;44.10;;;;;;6241905;28;20026;-65
2020/12/16 13:40:31;;;;;;;6.07;3.45;;;22.90;44.30;;;;;;6243334;28;20535;-65
2020/12/16 13:43:32;;;;;;;8.82;5.65;;;22.60;44.30;;;;;;6243182;28;20373;-65
2020/12/16 13:46:32;;;;;;;17.60;8.70;;;22.30;44.00;;;;;;6245571;28;20480;-65
2020/12/16 13:49:35;;;;;;;12.48;7.38;;;22.10;43.40;;;;;;6270695;28;20486;-65
2020/12/16 13:52:38;;;;;;;12.10;7.07;;;22.50;43.30;;;;;;6251416;28;20109;-68
2020/12/16 13:55:38;;;;;;;15.05;6.47;;;22.90;42.60;;;;;;6266168;28;20017;-69
2020/12/16 13:58:39;;;;;;;12.52;5.97;;;22.80;42.80;;;;;;6242986;28;20044;-70
2020/12/16 14:01:56;;;;;;;19.08;7.50;;;22.80;43.00;;;;;;6232284;28;20198;-70
2020/12/16 14:04:56;;;;;;;14.68;9.40;;;22.80;43.80;;;;;;6255981;28;20021;-70
2020/12/16 14:07:57;;;;;;;9.13;6.65;;;22.70;43.90;;;;;;6243326;28;20507;-68
2020/12/16 14:10:57;;;;;;;13.57;7.90;;;22.60;43.90;;;;;;6228875;28;20512;-69
2020/12/16 14:13:58;;;;;;;13.73;7.97;;;22.50;44.50;;;;;;6249435;28;20030;-68
2020/12/16 14:16:59;;;;;;;10.70;6.68;;;22.40;44.80;;;;;;6251583;28;20052;-69
2020/12/16 14:20:00;;;;;;;13.90;6.95;;;22.40;45.00;;;;;;6260529;28;20021;-69
2020/12/16 14:23:01;;;;;;;11.80;6.32;;;22.40;45.70;;;;;;6246754;28;20025;-70
2020/12/16 14:26:02;;;;;;;12.90;6.45;;;22.40;45.30;;;;;;6241912;28;20476;-69
2020/12/16 14:29:03;;;;;;;9.70;6.25;;;22.40;45.30;;;;;;6243063;28;20036;-69
2020/12/16 14:32:04;;;;;;;8.45;5.80;;;22.40;45.20;;;;;;6243240;28;20026;-68
2020/12/16 14:35:05;;;;;;;8.23;5.38;;;22.40;45.20;;;;;;6240239;28;20026;-68
2020/12/16 14:38:06;;;;;;;9.80;4.60;;;22.40;45.40;;;;;;6240710;28;20069;-68
2020/12/16 14:41:07;;;;;;;11.57;5.10;;;22.40;45.40;;;;;;6241180;28;20039;-68
2020/12/16 14:44:07;;;;;;;8.57;4.78;;;22.40;45.50;;;;;;6242655;28;20049;-67
2020/12/16 14:47:08;;;;;;;7.75;4.80;;;22.40;45.40;;;;;;6240872;28;20060;-68
2020/12/16 14:50:09;;;;;;;4.68;4.13;;;22.30;45.30;;;;;;6242365;28;20037;-68
2020/12/16 14:53:09;;;;;;;6.35;4.35;;;22.30;45.40;;;;;;6250412;28;20021;-68
2020/12/16 14:56:11;;;;;;;6.50;4.10;;;22.30;45.40;;;;;;6263988;28;20074;-68
2020/12/16 14:59:11;;;;;;;5.50;4.15;;;22.30;45.50;;;;;;6241889;28;20109;-69
2020/12/16 15:02:12;;;;;;;5.80;4.00;;;22.30;45.50;;;;;;6250863;28;20403;-67
2020/12/16 15:05:13;;;;;;;4.45;3.60;;;22.20;45.40;;;;;;6244923;28;20548;-68
2020/12/16 15:08:13;;;;;;;8.88;3.85;;;22.20;45.50;;;;;;6248922;28;20031;-68
2020/12/16 15:11:14;;;;;;;4.38;3.75;;;22.20;45.60;;;;;;6260193;28;20033;-68
2020/12/16 15:14:14;;;;;;;5.57;3.38;;;22.20;45.70;;;;;;6254293;28;20035;-68
2020/12/16 15:17:15;;;;;;;5.20;3.50;;;22.20;45.60;;;;;;6265546;28;20021;-68
2020/12/16 15:20:16;;;;;;;4.70;3.15;;;22.20;45.70;;;;;;6263750;28;20117;-69
2020/12/16 15:23:17;;;;;;;5.57;3.83;;;22.20;45.60;;;;;;6241662;28;20025;-68
2020/12/16 15:26:18;;;;;;;5.03;3.88;;;22.20;45.80;;;;;;6241479;28;20396;-69
2020/12/16 15:29:19;;;;;;;13.25;4.70;;;22.20;45.30;;;;;;6243115;28;20033;-67
2020/12/16 15:32:20;;;;;;;11.77;5.85;;;22.00;45.50;;;;;;6245269;28;20139;-68
2020/12/16 15:35:20;;;;;;;32.47;9.55;;;21.80;45.60;;;;;;6250359;28;20022;-67
2020/12/16 15:38:21;;;;;;;25.63;8.45;;;21.70;45.30;;;;;;6251509;28;20032;-65
2020/12/16 15:41:22;;;;;;;39.97;9.73;;;21.80;45.20;;;;;;6262070;28;20271;-67